Weather at Triangle North Executive Airport

Public forecast

Using degrees Fahrenheit for public forecast. Weather courtesy of forecast.io.

Current aviation weather report (METAR) for Triangle North Executive Airport

Retrieved 2021/01/24 21:35 UTC (0 seconds ago):

KLHZ 242135Z AUTO 00000KT 10SM OVC110 05/M09 A3023 RMK AO2

Closest aviation forecast (TAF) to Triangle North Executive Airport

Closest forecast is Rocky Mount Wilson Regional Airport, 23.6 nm (43.6 km) ESE. Retrieved 2021/01/24 18:48 UTC (2 hours ago):

TAF KRWI 241740Z 2418/2518 VRB03KT P6SM BKN100 FM251300 VRB02KT 4SM -RA OVC025 FM251600 VRB03KT 2SM -RA BR OVC007